sensor_id;sensor_type;location;lat;lon;timestamp;P1;durP1;ratioP1;P2;durP2;ratioP2
37785;SDS011;23625;48.784;9.336;2024-01-10T00:00:15;33.03;;;11.15;;
37785;SDS011;23625;48.784;9.336;2024-01-10T00:02:40;29.77;;;10.77;;
37785;SDS011;23625;48.784;9.336;2024-01-10T00:05:06;30.35;;;10.05;;
37785;SDS011;23625;48.784;9.336;2024-01-10T00:07:32;34.65;;;10.82;;
37785;SDS011;23625;48.784;9.336;2024-01-10T00:09:57;31.35;;;10.50;;
37785;SDS011;23625;48.784;9.336;2024-01-10T00:12:25;29.98;;;10.30;;
37785;SDS011;23625;48.784;9.336;2024-01-10T00:14:51;31.30;;;10.48;;
37785;SDS011;23625;48.784;9.336;2024-01-10T00:17:16;37.33;;;11.55;;
37785;SDS011;23625;48.784;9.336;2024-01-10T00:19:42;26.75;;;9.57;;
37785;SDS011;23625;48.784;9.336;2024-01-10T00:22:08;24.00;;;9.68;;
37785;SDS011;23625;48.784;9.336;2024-01-10T00:24:34;35.05;;;10.70;;
37785;SDS011;23625;48.784;9.336;2024-01-10T00:27:00;28.60;;;9.15;;
37785;SDS011;23625;48.784;9.336;2024-01-10T00:29:25;26.02;;;10.00;;
37785;SDS011;23625;48.784;9.336;2024-01-10T00:31:51;33.00;;;10.70;;
37785;SDS011;23625;48.784;9.336;2024-01-10T00:34:18;27.92;;;9.65;;
37785;SDS011;23625;48.784;9.336;2024-01-10T00:36:43;33.25;;;10.75;;
37785;SDS011;23625;48.784;9.336;2024-01-10T00:39:09;30.85;;;10.65;;
37785;SDS011;23625;48.784;9.336;2024-01-10T00:41:34;31.08;;;10.00;;
37785;SDS011;23625;48.784;9.336;2024-01-10T00:44:00;31.40;;;10.10;;
37785;SDS011;23625;48.784;9.336;2024-01-10T00:46:25;25.63;;;9.55;;
37785;SDS011;23625;48.784;9.336;2024-01-10T00:48:51;29.35;;;9.15;;
37785;SDS011;23625;48.784;9.336;2024-01-10T00:51:16;30.38;;;9.60;;
37785;SDS011;23625;48.784;9.336;2024-01-10T00:53:42;29.38;;;9.95;;
37785;SDS011;23625;48.784;9.336;2024-01-10T00:56:08;34.60;;;10.20;;
37785;SDS011;23625;48.784;9.336;2024-01-10T00:58:33;31.48;;;10.23;;
37785;SDS011;23625;48.784;9.336;2024-01-10T01:00:59;27.05;;;10.30;;
37785;SDS011;23625;48.784;9.336;2024-01-10T01:03:24;38.08;;;11.38;;
37785;SDS011;23625;48.784;9.336;2024-01-10T01:05:50;32.70;;;10.52;;
37785;SDS011;23625;48.784;9.336;2024-01-10T01:08:15;28.70;;;10.23;;
37785;SDS011;23625;48.784;9.336;2024-01-10T01:10:41;31.17;;;11.18;;
37785;SDS011;23625;48.784;9.336;2024-01-10T01:13:07;28.15;;;10.35;;
37785;SDS011;23625;48.784;9.336;2024-01-10T01:15:32;31.65;;;10.40;;
37785;SDS011;23625;48.784;9.336;2024-01-10T01:17:58;31.92;;;11.02;;
37785;SDS011;23625;48.784;9.336;2024-01-10T01:20:23;33.58;;;10.15;;
37785;SDS011;23625;48.784;9.336;2024-01-10T01:22:49;30.55;;;11.05;;
37785;SDS011;23625;48.784;9.336;2024-01-10T01:25:14;28.35;;;9.55;;
37785;SDS011;23625;48.784;9.336;2024-01-10T01:27:40;26.50;;;9.90;;
37785;SDS011;23625;48.784;9.336;2024-01-10T01:30:06;35.05;;;10.85;;
37785;SDS011;23625;48.784;9.336;2024-01-10T01:32:32;28.75;;;9.25;;
37785;SDS011;23625;48.784;9.336;2024-01-10T01:35:03;29.00;;;9.88;;
37785;SDS011;23625;48.784;9.336;2024-01-10T01:37:29;29.42;;;10.02;;
37785;SDS011;23625;48.784;9.336;2024-01-10T01:39:55;33.55;;;9.55;;
37785;SDS011;23625;48.784;9.336;2024-01-10T01:42:20;28.17;;;8.98;;
37785;SDS011;23625;48.784;9.336;2024-01-10T01:44:46;29.98;;;10.43;;
37785;SDS011;23625;48.784;9.336;2024-01-10T01:47:12;33.28;;;9.80;;
37785;SDS011;23625;48.784;9.336;2024-01-10T01:49:38;29.55;;;10.10;;
37785;SDS011;23625;48.784;9.336;2024-01-10T01:52:03;32.03;;;10.15;;
37785;SDS011;23625;48.784;9.336;2024-01-10T01:54:30;26.88;;;10.02;;
37785;SDS011;23625;48.784;9.336;2024-01-10T01:56:57;26.08;;;8.68;;
37785;SDS011;23625;48.784;9.336;2024-01-10T01:59:23;31.58;;;9.98;;
37785;SDS011;23625;48.784;9.336;2024-01-10T02:01:49;32.00;;;11.02;;
37785;SDS011;23625;48.784;9.336;2024-01-10T02:04:19;30.48;;;9.98;;
37785;SDS011;23625;48.784;9.336;2024-01-10T02:06:45;26.40;;;10.55;;
37785;SDS011;23625;48.784;9.336;2024-01-10T02:09:10;31.70;;;10.20;;
37785;SDS011;23625;48.784;9.336;2024-01-10T02:11:36;33.97;;;10.27;;
37785;SDS011;23625;48.784;9.336;2024-01-10T02:14:02;38.30;;;10.65;;
37785;SDS011;23625;48.784;9.336;2024-01-10T02:16:28;37.42;;;11.20;;
37785;SDS011;23625;48.784;9.336;2024-01-10T02:18:54;44.13;;;14.10;;
37785;SDS011;23625;48.784;9.336;2024-01-10T02:21:22;31.25;;;10.68;;
37785;SDS011;23625;48.784;9.336;2024-01-10T02:23:48;33.60;;;10.50;;
37785;SDS011;23625;48.784;9.336;2024-01-10T02:26:14;29.40;;;10.10;;
37785;SDS011;23625;48.784;9.336;2024-01-10T02:28:40;31.17;;;10.68;;
37785;SDS011;23625;48.784;9.336;2024-01-10T02:31:06;28.10;;;10.57;;
37785;SDS011;23625;48.784;9.336;2024-01-10T02:33:32;29.40;;;10.32;;
37785;SDS011;23625;48.784;9.336;2024-01-10T02:35:58;32.45;;;10.93;;
37785;SDS011;23625;48.784;9.336;2024-01-10T02:38:23;25.13;;;9.52;;
37785;SDS011;23625;48.784;9.336;2024-01-10T02:40:49;30.75;;;10.60;;
37785;SDS011;23625;48.784;9.336;2024-01-10T02:43:15;31.17;;;10.38;;
37785;SDS011;23625;48.784;9.336;2024-01-10T02:45:41;31.35;;;10.02;;
37785;SDS011;23625;48.784;9.336;2024-01-10T02:48:07;30.33;;;9.40;;
37785;SDS011;23625;48.784;9.336;2024-01-10T02:50:32;31.95;;;12.07;;
37785;SDS011;23625;48.784;9.336;2024-01-10T02:52:58;33.17;;;12.07;;
37785;SDS011;23625;48.784;9.336;2024-01-10T02:55:23;38.92;;;13.65;;
37785;SDS011;23625;48.784;9.336;2024-01-10T02:57:49;35.90;;;11.85;;
37785;SDS011;23625;48.784;9.336;2024-01-10T03:00:14;37.35;;;10.55;;
37785;SDS011;23625;48.784;9.336;2024-01-10T03:02:40;33.70;;;10.07;;
37785;SDS011;23625;48.784;9.336;2024-01-10T03:05:06;32.35;;;11.32;;
37785;SDS011;23625;48.784;9.336;2024-01-10T03:07:32;29.52;;;8.75;;
37785;SDS011;23625;48.784;9.336;2024-01-10T03:09:57;31.15;;;9.05;;
37785;SDS011;23625;48.784;9.336;2024-01-10T03:12:23;31.88;;;11.52;;
37785;SDS011;23625;48.784;9.336;2024-01-10T03:14:48;27.80;;;8.80;;
37785;SDS011;23625;48.784;9.336;2024-01-10T03:17:14;33.13;;;11.02;;
37785;SDS011;23625;48.784;9.336;2024-01-10T03:19:40;31.10;;;9.48;;
37785;SDS011;23625;48.784;9.336;2024-01-10T03:22:08;34.50;;;10.02;;
37785;SDS011;23625;48.784;9.336;2024-01-10T03:24:35;31.48;;;10.85;;
37785;SDS011;23625;48.784;9.336;2024-01-10T03:27:01;30.98;;;11.65;;
37785;SDS011;23625;48.784;9.336;2024-01-10T03:29:28;30.15;;;10.85;;
37785;SDS011;23625;48.784;9.336;2024-01-10T03:31:53;38.53;;;10.35;;
37785;SDS011;23625;48.784;9.336;2024-01-10T03:34:19;26.42;;;10.50;;
37785;SDS011;23625;48.784;9.336;2024-01-10T03:36:45;36.03;;;10.80;;
37785;SDS011;23625;48.784;9.336;2024-01-10T03:39:10;25.08;;;9.20;;
37785;SDS011;23625;48.784;9.336;2024-01-10T03:41:36;28.80;;;9.40;;
37785;SDS011;23625;48.784;9.336;2024-01-10T03:44:01;30.77;;;10.65;;
37785;SDS011;23625;48.784;9.336;2024-01-10T03:46:27;33.47;;;10.32;;
37785;SDS011;23625;48.784;9.336;2024-01-10T03:48:52;28.75;;;11.05;;
37785;SDS011;23625;48.784;9.336;2024-01-10T03:51:18;27.77;;;9.65;;
37785;SDS011;23625;48.784;9.336;2024-01-10T03:53:44;32.85;;;10.43;;
37785;SDS011;23625;48.784;9.336;2024-01-10T03:56:11;34.08;;;9.40;;
37785;SDS011;23625;48.784;9.336;2024-01-10T03:58:37;29.77;;;10.25;;
37785;SDS011;23625;48.784;9.336;2024-01-10T04:01:06;27.65;;;9.07;;
37785;SDS011;23625;48.784;9.336;2024-01-10T04:03:32;32.75;;;10.23;;
37785;SDS011;23625;48.784;9.336;2024-01-10T04:05:59;36.90;;;11.43;;
37785;SDS011;23625;48.784;9.336;2024-01-10T04:08:25;28.50;;;10.23;;
37785;SDS011;23625;48.784;9.336;2024-01-10T04:10:51;26.05;;;9.70;;
37785;SDS011;23625;48.784;9.336;2024-01-10T04:13:16;34.85;;;11.35;;
37785;SDS011;23625;48.784;9.336;2024-01-10T04:15:42;35.38;;;11.57;;
37785;SDS011;23625;48.784;9.336;2024-01-10T04:18:07;35.70;;;10.32;;
37785;SDS011;23625;48.784;9.336;2024-01-10T04:20:33;30.50;;;9.93;;
37785;SDS011;23625;48.784;9.336;2024-01-10T04:22:59;30.67;;;10.85;;
37785;SDS011;23625;48.784;9.336;2024-01-10T04:25:24;27.58;;;9.48;;
37785;SDS011;23625;48.784;9.336;2024-01-10T04:27:50;30.20;;;10.45;;
37785;SDS011;23625;48.784;9.336;2024-01-10T04:30:16;33.60;;;10.80;;
37785;SDS011;23625;48.784;9.336;2024-01-10T04:32:41;30.63;;;10.70;;
37785;SDS011;23625;48.784;9.336;2024-01-10T04:35:07;23.73;;;9.95;;
37785;SDS011;23625;48.784;9.336;2024-01-10T04:37:32;28.00;;;10.63;;
37785;SDS011;23625;48.784;9.336;2024-01-10T04:39:58;25.27;;;10.00;;
37785;SDS011;23625;48.784;9.336;2024-01-10T04:42:23;28.80;;;9.77;;
37785;SDS011;23625;48.784;9.336;2024-01-10T04:44:50;29.40;;;10.43;;
37785;SDS011;23625;48.784;9.336;2024-01-10T04:47:15;24.02;;;9.43;;
37785;SDS011;23625;48.784;9.336;2024-01-10T04:49:41;28.73;;;9.80;;
37785;SDS011;23625;48.784;9.336;2024-01-10T04:52:07;34.65;;;10.75;;
37785;SDS011;23625;48.784;9.336;2024-01-10T04:54:32;38.15;;;11.07;;
37785;SDS011;23625;48.784;9.336;2024-01-10T04:56:58;28.88;;;10.25;;
37785;SDS011;23625;48.784;9.336;2024-01-10T04:59:23;34.53;;;11.52;;
37785;SDS011;23625;48.784;9.336;2024-01-10T05:01:49;27.63;;;10.65;;
37785;SDS011;23625;48.784;9.336;2024-01-10T05:04:15;45.28;;;15.45;;
37785;SDS011;23625;48.784;9.336;2024-01-10T05:06:40;35.45;;;12.85;;
37785;SDS011;23625;48.784;9.336;2024-01-10T05:09:06;40.05;;;13.18;;
37785;SDS011;23625;48.784;9.336;2024-01-10T05:11:31;49.80;;;16.20;;
37785;SDS011;23625;48.784;9.336;2024-01-10T05:13:59;34.47;;;10.48;;
37785;SDS011;23625;48.784;9.336;2024-01-10T05:16:25;82.95;;;21.88;;
37785;SDS011;23625;48.784;9.336;2024-01-10T05:18:50;64.65;;;20.60;;
37785;SDS011;23625;48.784;9.336;2024-01-10T05:21:16;28.98;;;11.45;;
37785;SDS011;23625;48.784;9.336;2024-01-10T05:23:42;49.28;;;16.35;;
37785;SDS011;23625;48.784;9.336;2024-01-10T05:26:07;131.05;;;35.55;;
37785;SDS011;23625;48.784;9.336;2024-01-10T05:28:33;35.58;;;12.88;;
37785;SDS011;23625;48.784;9.336;2024-01-10T05:30:59;36.72;;;12.63;;
37785;SDS011;23625;48.784;9.336;2024-01-10T05:33:24;39.15;;;11.63;;
37785;SDS011;23625;48.784;9.336;2024-01-10T05:35:50;32.60;;;11.48;;
37785;SDS011;23625;48.784;9.336;2024-01-10T05:38:16;31.70;;;10.70;;
37785;SDS011;23625;48.784;9.336;2024-01-10T05:40:41;36.15;;;11.30;;
37785;SDS011;23625;48.784;9.336;2024-01-10T05:43:07;30.58;;;12.70;;
37785;SDS011;23625;48.784;9.336;2024-01-10T05:45:32;28.80;;;11.70;;
37785;SDS011;23625;48.784;9.336;2024-01-10T05:47:58;35.20;;;11.32;;
37785;SDS011;23625;48.784;9.336;2024-01-10T05:50:24;31.88;;;10.82;;
37785;SDS011;23625;48.784;9.336;2024-01-10T05:52:50;33.50;;;12.10;;
37785;SDS011;23625;48.784;9.336;2024-01-10T05:55:15;35.20;;;12.43;;
37785;SDS011;23625;48.784;9.336;2024-01-10T05:57:41;38.53;;;12.75;;
37785;SDS011;23625;48.784;9.336;2024-01-10T06:00:07;35.70;;;12.32;;
37785;SDS011;23625;48.784;9.336;2024-01-10T06:02:37;40.08;;;12.27;;
37785;SDS011;23625;48.784;9.336;2024-01-10T06:05:07;36.63;;;11.48;;
37785;SDS011;23625;48.784;9.336;2024-01-10T06:07:36;34.20;;;11.35;;
37785;SDS011;23625;48.784;9.336;2024-01-10T06:10:02;211.10;;;55.03;;
37785;SDS011;23625;48.784;9.336;2024-01-10T06:12:28;102.78;;;28.98;;
37785;SDS011;23625;48.784;9.336;2024-01-10T06:14:54;44.30;;;14.40;;
37785;SDS011;23625;48.784;9.336;2024-01-10T06:17:20;34.53;;;11.95;;
37785;SDS011;23625;48.784;9.336;2024-01-10T06:19:46;39.72;;;11.90;;
37785;SDS011;23625;48.784;9.336;2024-01-10T06:22:11;47.65;;;15.20;;
37785;SDS011;23625;48.784;9.336;2024-01-10T06:24:37;40.97;;;14.10;;
37785;SDS011;23625;48.784;9.336;2024-01-10T06:27:03;47.72;;;14.85;;
37785;SDS011;23625;48.784;9.336;2024-01-10T06:29:29;42.85;;;13.20;;
37785;SDS011;23625;48.784;9.336;2024-01-10T06:31:55;27.73;;;11.20;;
37785;SDS011;23625;48.784;9.336;2024-01-10T06:34:22;52.35;;;14.57;;
37785;SDS011;23625;48.784;9.336;2024-01-10T06:36:47;68.22;;;22.50;;
37785;SDS011;23625;48.784;9.336;2024-01-10T06:39:13;47.10;;;15.90;;
37785;SDS011;23625;48.784;9.336;2024-01-10T06:41:39;41.13;;;14.82;;
37785;SDS011;23625;48.784;9.336;2024-01-10T06:44:04;33.25;;;12.52;;
37785;SDS011;23625;48.784;9.336;2024-01-10T06:46:31;37.92;;;12.02;;
37785;SDS011;23625;48.784;9.336;2024-01-10T06:48:58;64.63;;;18.58;;
37785;SDS011;23625;48.784;9.336;2024-01-10T06:51:24;58.58;;;16.85;;
37785;SDS011;23625;48.784;9.336;2024-01-10T06:53:51;42.10;;;14.32;;
37785;SDS011;23625;48.784;9.336;2024-01-10T06:56:17;38.90;;;13.60;;
37785;SDS011;23625;48.784;9.336;2024-01-10T06:58:43;45.38;;;14.32;;
37785;SDS011;23625;48.784;9.336;2024-01-10T07:01:12;180.63;;;45.88;;
37785;SDS011;23625;48.784;9.336;2024-01-10T07:03:39;71.15;;;21.48;;
37785;SDS011;23625;48.784;9.336;2024-01-10T07:06:05;54.13;;;16.80;;
37785;SDS011;23625;48.784;9.336;2024-01-10T07:08:30;108.07;;;23.88;;
37785;SDS011;23625;48.784;9.336;2024-01-10T07:10:56;186.02;;;39.15;;
37785;SDS011;23625;48.784;9.336;2024-01-10T07:13:22;87.97;;;21.35;;
37785;SDS011;23625;48.784;9.336;2024-01-10T07:15:48;135.45;;;28.85;;
37785;SDS011;23625;48.784;9.336;2024-01-10T07:18:16;350.77;;;62.75;;
37785;SDS011;23625;48.784;9.336;2024-01-10T07:20:42;122.10;;;24.60;;
37785;SDS011;23625;48.784;9.336;2024-01-10T07:23:07;81.80;;;19.45;;
37785;SDS011;23625;48.784;9.336;2024-01-10T07:25:33;85.22;;;22.10;;
37785;SDS011;23625;48.784;9.336;2024-01-10T07:27:58;106.85;;;24.55;;
37785;SDS011;23625;48.784;9.336;2024-01-10T07:30:24;64.88;;;18.02;;
37785;SDS011;23625;48.784;9.336;2024-01-10T07:32:51;50.80;;;16.35;;
37785;SDS011;23625;48.784;9.336;2024-01-10T07:35:16;63.80;;;21.00;;
37785;SDS011;23625;48.784;9.336;2024-01-10T07:37:44;92.40;;;25.85;;
37785;SDS011;23625;48.784;9.336;2024-01-10T07:40:09;56.78;;;18.40;;
37785;SDS011;23625;48.784;9.336;2024-01-10T07:42:38;45.25;;;15.90;;
37785;SDS011;23625;48.784;9.336;2024-01-10T07:45:04;41.28;;;15.07;;
37785;SDS011;23625;48.784;9.336;2024-01-10T07:47:31;69.82;;;21.95;;
37785;SDS011;23625;48.784;9.336;2024-01-10T07:49:57;374.08;;;88.57;;
37785;SDS011;23625;48.784;9.336;2024-01-10T07:52:22;407.73;;;98.20;;
37785;SDS011;23625;48.784;9.336;2024-01-10T07:54:51;130.43;;;37.35;;
37785;SDS011;23625;48.784;9.336;2024-01-10T07:57:17;94.13;;;26.83;;
37785;SDS011;23625;48.784;9.336;2024-01-10T07:59:44;73.35;;;27.45;;
37785;SDS011;23625;48.784;9.336;2024-01-10T08:02:10;80.55;;;31.40;;
37785;SDS011;23625;48.784;9.336;2024-01-10T08:04:36;57.08;;;20.17;;
37785;SDS011;23625;48.784;9.336;2024-01-10T08:07:02;48.28;;;16.15;;
37785;SDS011;23625;48.784;9.336;2024-01-10T08:09:28;59.75;;;24.27;;
37785;SDS011;23625;48.784;9.336;2024-01-10T08:11:54;51.67;;;20.60;;
37785;SDS011;23625;48.784;9.336;2024-01-10T08:14:19;58.40;;;16.83;;
37785;SDS011;23625;48.784;9.336;2024-01-10T08:16:45;54.30;;;17.23;;
37785;SDS011;23625;48.784;9.336;2024-01-10T08:19:11;50.15;;;17.05;;
37785;SDS011;23625;48.784;9.336;2024-01-10T08:21:36;55.03;;;20.27;;
37785;SDS011;23625;48.784;9.336;2024-01-10T08:24:02;57.90;;;20.63;;
37785;SDS011;23625;48.784;9.336;2024-01-10T08:26:28;77.47;;;27.90;;
37785;SDS011;23625;48.784;9.336;2024-01-10T08:28:53;57.33;;;18.70;;
37785;SDS011;23625;48.784;9.336;2024-01-10T08:31:19;59.25;;;20.65;;
37785;SDS011;23625;48.784;9.336;2024-01-10T08:33:44;55.47;;;19.33;;
37785;SDS011;23625;48.784;9.336;2024-01-10T08:36:11;52.42;;;18.60;;
37785;SDS011;23625;48.784;9.336;2024-01-10T08:38:37;49.38;;;18.45;;
37785;SDS011;23625;48.784;9.336;2024-01-10T08:41:03;47.65;;;17.98;;
37785;SDS011;23625;48.784;9.336;2024-01-10T08:43:29;47.92;;;17.33;;
37785;SDS011;23625;48.784;9.336;2024-01-10T08:45:55;46.60;;;18.08;;
37785;SDS011;23625;48.784;9.336;2024-01-10T08:48:22;51.30;;;15.88;;
37785;SDS011;23625;48.784;9.336;2024-01-10T08:50:48;51.03;;;19.73;;
37785;SDS011;23625;48.784;9.336;2024-01-10T08:53:15;50.92;;;18.38;;
37785;SDS011;23625;48.784;9.336;2024-01-10T08:55:41;52.35;;;17.20;;
37785;SDS011;23625;48.784;9.336;2024-01-10T08:58:06;45.60;;;17.58;;
37785;SDS011;23625;48.784;9.336;2024-01-10T09:00:32;54.90;;;18.08;;
37785;SDS011;23625;48.784;9.336;2024-01-10T09:02:59;49.25;;;18.00;;
37785;SDS011;23625;48.784;9.336;2024-01-10T09:05:25;47.25;;;19.80;;
37785;SDS011;23625;48.784;9.336;2024-01-10T09:07:51;78.80;;;28.25;;
37785;SDS011;23625;48.784;9.336;2024-01-10T09:10:18;68.68;;;28.15;;
37785;SDS011;23625;48.784;9.336;2024-01-10T09:12:46;54.95;;;22.65;;
37785;SDS011;23625;48.784;9.336;2024-01-10T09:15:12;53.03;;;20.60;;
37785;SDS011;23625;48.784;9.336;2024-01-10T09:17:42;65.03;;;21.27;;
37785;SDS011;23625;48.784;9.336;2024-01-10T09:20:09;74.43;;;26.65;;
37785;SDS011;23625;48.784;9.336;2024-01-10T09:22:35;68.93;;;24.15;;
37785;SDS011;23625;48.784;9.336;2024-01-10T09:25:03;63.97;;;22.20;;
37785;SDS011;23625;48.784;9.336;2024-01-10T09:27:30;67.15;;;21.95;;
37785;SDS011;23625;48.784;9.336;2024-01-10T09:29:57;61.45;;;22.70;;
37785;SDS011;23625;48.784;9.336;2024-01-10T09:32:22;88.18;;;31.80;;
37785;SDS011;23625;48.784;9.336;2024-01-10T09:34:48;66.70;;;24.05;;
37785;SDS011;23625;48.784;9.336;2024-01-10T09:37:13;62.70;;;25.88;;
37785;SDS011;23625;48.784;9.336;2024-01-10T09:39:39;59.72;;;23.17;;
37785;SDS011;23625;48.784;9.336;2024-01-10T09:42:05;61.47;;;22.80;;
37785;SDS011;23625;48.784;9.336;2024-01-10T09:44:31;60.15;;;20.92;;
37785;SDS011;23625;48.784;9.336;2024-01-10T09:46:58;57.38;;;20.95;;
37785;SDS011;23625;48.784;9.336;2024-01-10T09:49:25;56.65;;;21.02;;
37785;SDS011;23625;48.784;9.336;2024-01-10T09:51:57;58.25;;;21.85;;
37785;SDS011;23625;48.784;9.336;2024-01-10T09:54:26;57.72;;;22.48;;
37785;SDS011;23625;48.784;9.336;2024-01-10T09:56:55;57.40;;;20.05;;
37785;SDS011;23625;48.784;9.336;2024-01-10T09:59:22;59.42;;;20.80;;
37785;SDS011;23625;48.784;9.336;2024-01-10T10:01:48;63.33;;;20.58;;
37785;SDS011;23625;48.784;9.336;2024-01-10T10:04:16;47.88;;;18.27;;
37785;SDS011;23625;48.784;9.336;2024-01-10T10:06:44;60.55;;;21.98;;
37785;SDS011;23625;48.784;9.336;2024-01-10T10:09:10;49.80;;;20.67;;
37785;SDS011;23625;48.784;9.336;2024-01-10T10:11:37;61.85;;;20.75;;
37785;SDS011;23625;48.784;9.336;2024-01-10T10:14:13;55.63;;;21.33;;
37785;SDS011;23625;48.784;9.336;2024-01-10T10:16:40;49.83;;;20.35;;
37785;SDS011;23625;48.784;9.336;2024-01-10T10:19:06;55.20;;;21.67;;
37785;SDS011;23625;48.784;9.336;2024-01-10T10:21:32;53.28;;;20.17;;
37785;SDS011;23625;48.784;9.336;2024-01-10T10:23:59;52.33;;;20.13;;
37785;SDS011;23625;48.784;9.336;2024-01-10T10:26:26;51.67;;;20.83;;
37785;SDS011;23625;48.784;9.336;2024-01-10T10:28:54;48.25;;;20.33;;
37785;SDS011;23625;48.784;9.336;2024-01-10T10:31:21;55.65;;;20.48;;
37785;SDS011;23625;48.784;9.336;2024-01-10T10:33:51;62.45;;;21.58;;
37785;SDS011;23625;48.784;9.336;2024-01-10T10:36:17;62.53;;;21.63;;
37785;SDS011;23625;48.784;9.336;2024-01-10T10:38:46;51.17;;;19.63;;
37785;SDS011;23625;48.784;9.336;2024-01-10T10:41:15;50.95;;;20.15;;
37785;SDS011;23625;48.784;9.336;2024-01-10T10:43:41;49.97;;;19.65;;
37785;SDS011;23625;48.784;9.336;2024-01-10T10:46:07;51.63;;;20.70;;
37785;SDS011;23625;48.784;9.336;2024-01-10T10:48:41;50.15;;;20.27;;
37785;SDS011;23625;48.784;9.336;2024-01-10T10:51:11;48.88;;;20.13;;
37785;SDS011;23625;48.784;9.336;2024-01-10T10:53:41;60.05;;;21.63;;
37785;SDS011;23625;48.784;9.336;2024-01-10T10:56:10;56.03;;;21.45;;
37785;SDS011;23625;48.784;9.336;2024-01-10T10:58:40;63.83;;;24.13;;
37785;SDS011;23625;48.784;9.336;2024-01-10T11:01:07;47.35;;;19.58;;
37785;SDS011;23625;48.784;9.336;2024-01-10T11:03:35;51.88;;;19.83;;
37785;SDS011;23625;48.784;9.336;2024-01-10T11:06:02;54.53;;;20.73;;
37785;SDS011;23625;48.784;9.336;2024-01-10T11:08:34;53.42;;;21.35;;
37785;SDS011;23625;48.784;9.336;2024-01-10T11:11:03;60.90;;;21.45;;
37785;SDS011;23625;48.784;9.336;2024-01-10T11:22:04;51.33;;;21.40;;
37785;SDS011;23625;48.784;9.336;2024-01-10T11:24:32;59.95;;;21.33;;
37785;SDS011;23625;48.784;9.336;2024-01-10T11:27:10;56.65;;;20.65;;
37785;SDS011;23625;48.784;9.336;2024-01-10T11:29:40;57.90;;;23.33;;
37785;SDS011;23625;48.784;9.336;2024-01-10T11:32:12;58.55;;;21.45;;
37785;SDS011;23625;48.784;9.336;2024-01-10T11:34:50;58.22;;;20.98;;
37785;SDS011;23625;48.784;9.336;2024-01-10T11:37:20;54.80;;;21.92;;
37785;SDS011;23625;48.784;9.336;2024-01-10T11:39:46;56.53;;;21.90;;
37785;SDS011;23625;48.784;9.336;2024-01-10T11:42:11;51.70;;;21.83;;
37785;SDS011;23625;48.784;9.336;2024-01-10T11:44:49;57.10;;;21.73;;
37785;SDS011;23625;48.784;9.336;2024-01-10T11:47:16;53.67;;;21.75;;
37785;SDS011;23625;48.784;9.336;2024-01-10T11:49:53;53.28;;;22.48;;
37785;SDS011;23625;48.784;9.336;2024-01-10T11:52:21;58.55;;;22.02;;
37785;SDS011;23625;48.784;9.336;2024-01-10T11:54:48;59.13;;;22.13;;
37785;SDS011;23625;48.784;9.336;2024-01-10T11:57:21;54.63;;;22.38;;
37785;SDS011;23625;48.784;9.336;2024-01-10T11:59:50;54.95;;;22.33;;
37785;SDS011;23625;48.784;9.336;2024-01-10T12:02:18;52.95;;;21.40;;
37785;SDS011;23625;48.784;9.336;2024-01-10T12:04:44;60.08;;;21.98;;
37785;SDS011;23625;48.784;9.336;2024-01-10T12:07:11;61.75;;;22.90;;
37785;SDS011;23625;48.784;9.336;2024-01-10T12:09:37;52.70;;;21.02;;
37785;SDS011;23625;48.784;9.336;2024-01-10T12:12:03;61.25;;;22.50;;
37785;SDS011;23625;48.784;9.336;2024-01-10T12:14:29;53.45;;;22.52;;
37785;SDS011;23625;48.784;9.336;2024-01-10T12:16:56;58.08;;;21.60;;
37785;SDS011;23625;48.784;9.336;2024-01-10T12:19:22;57.08;;;22.30;;
37785;SDS011;23625;48.784;9.336;2024-01-10T12:21:50;52.30;;;21.35;;
37785;SDS011;23625;48.784;9.336;2024-01-10T12:24:17;59.90;;;22.45;;
37785;SDS011;23625;48.784;9.336;2024-01-10T12:26:43;53.53;;;22.95;;
37785;SDS011;23625;48.784;9.336;2024-01-10T12:29:10;62.28;;;22.58;;
37785;SDS011;23625;48.784;9.336;2024-01-10T12:31:35;54.63;;;22.33;;
37785;SDS011;23625;48.784;9.336;2024-01-10T12:34:02;53.85;;;22.95;;
37785;SDS011;23625;48.784;9.336;2024-01-10T12:36:28;57.03;;;23.88;;
37785;SDS011;23625;48.784;9.336;2024-01-10T12:38:53;54.97;;;22.35;;
37785;SDS011;23625;48.784;9.336;2024-01-10T12:41:20;55.13;;;22.60;;
37785;SDS011;23625;48.784;9.336;2024-01-10T12:43:49;53.60;;;23.10;;
37785;SDS011;23625;48.784;9.336;2024-01-10T12:46:17;62.80;;;23.60;;
37785;SDS011;23625;48.784;9.336;2024-01-10T12:48:42;54.28;;;22.15;;
37785;SDS011;23625;48.784;9.336;2024-01-10T12:51:12;53.88;;;23.08;;
37785;SDS011;23625;48.784;9.336;2024-01-10T12:53:42;52.17;;;23.25;;
37785;SDS011;23625;48.784;9.336;2024-01-10T12:56:09;57.47;;;22.50;;
37785;SDS011;23625;48.784;9.336;2024-01-10T12:58:38;54.13;;;22.38;;
37785;SDS011;23625;48.784;9.336;2024-01-10T13:01:06;53.70;;;23.05;;
37785;SDS011;23625;48.784;9.336;2024-01-10T13:03:33;56.88;;;24.13;;
37785;SDS011;23625;48.784;9.336;2024-01-10T13:05:59;63.47;;;23.52;;
37785;SDS011;23625;48.784;9.336;2024-01-10T13:08:25;61.97;;;24.73;;
37785;SDS011;23625;48.784;9.336;2024-01-10T13:10:51;62.38;;;24.05;;
37785;SDS011;23625;48.784;9.336;2024-01-10T13:13:16;56.83;;;22.80;;
37785;SDS011;23625;48.784;9.336;2024-01-10T13:15:46;53.00;;;23.25;;
37785;SDS011;23625;48.784;9.336;2024-01-10T13:18:12;55.90;;;22.20;;
37785;SDS011;23625;48.784;9.336;2024-01-10T13:20:43;58.45;;;22.73;;
37785;SDS011;23625;48.784;9.336;2024-01-10T13:23:09;56.25;;;23.67;;
37785;SDS011;23625;48.784;9.336;2024-01-10T13:25:35;57.72;;;24.27;;
37785;SDS011;23625;48.784;9.336;2024-01-10T13:28:02;70.97;;;27.10;;
37785;SDS011;23625;48.784;9.336;2024-01-10T13:30:31;76.72;;;29.58;;
37785;SDS011;23625;48.784;9.336;2024-01-10T13:32:56;78.53;;;30.83;;
37785;SDS011;23625;48.784;9.336;2024-01-10T13:35:23;73.80;;;28.48;;
37785;SDS011;23625;48.784;9.336;2024-01-10T13:37:49;59.08;;;23.77;;
37785;SDS011;23625;48.784;9.336;2024-01-10T13:40:14;58.20;;;23.80;;
37785;SDS011;23625;48.784;9.336;2024-01-10T13:42:41;54.53;;;24.00;;
37785;SDS011;23625;48.784;9.336;2024-01-10T13:45:08;56.38;;;23.50;;
37785;SDS011;23625;48.784;9.336;2024-01-10T13:47:37;55.72;;;23.35;;
37785;SDS011;23625;48.784;9.336;2024-01-10T13:50:06;62.33;;;24.15;;
37785;SDS011;23625;48.784;9.336;2024-01-10T13:52:33;56.42;;;23.55;;
37785;SDS011;23625;48.784;9.336;2024-01-10T13:54:59;58.42;;;24.33;;
37785;SDS011;23625;48.784;9.336;2024-01-10T13:57:25;63.97;;;24.15;;
37785;SDS011;23625;48.784;9.336;2024-01-10T13:59:51;60.22;;;24.75;;
37785;SDS011;23625;48.784;9.336;2024-01-10T14:02:20;53.40;;;24.17;;
37785;SDS011;23625;48.784;9.336;2024-01-10T14:04:48;61.60;;;25.92;;
37785;SDS011;23625;48.784;9.336;2024-01-10T14:07:14;58.30;;;25.83;;
37785;SDS011;23625;48.784;9.336;2024-01-10T14:09:40;58.65;;;23.10;;
37785;SDS011;23625;48.784;9.336;2024-01-10T14:12:05;59.15;;;24.52;;
37785;SDS011;23625;48.784;9.336;2024-01-10T14:14:31;69.38;;;25.23;;
37785;SDS011;23625;48.784;9.336;2024-01-10T14:16:59;67.03;;;25.83;;
37785;SDS011;23625;48.784;9.336;2024-01-10T14:19:25;64.07;;;24.35;;
37785;SDS011;23625;48.784;9.336;2024-01-10T14:21:51;60.65;;;25.83;;
37785;SDS011;23625;48.784;9.336;2024-01-10T14:24:17;58.47;;;24.63;;
37785;SDS011;23625;48.784;9.336;2024-01-10T14:26:43;64.60;;;25.15;;